createdAt,value
2018-12-20T00:00:46.564Z,0.00
2018-12-20T00:01:46.631Z,0.00
2018-12-20T00:02:46.521Z,0.00
2018-12-20T00:03:46.497Z,0.00
2018-12-20T00:04:46.492Z,0.00
2018-12-20T00:05:46.590Z,0.00
2018-12-20T00:06:46.464Z,0.00
2018-12-20T00:07:46.463Z,0.00
2018-12-20T00:08:46.443Z,0.00
2018-12-20T00:09:46.479Z,0.00
2018-12-20T00:10:46.494Z,0.00
2018-12-20T00:11:46.537Z,0.00
2018-12-20T00:12:46.410Z,0.00
2018-12-20T00:13:46.377Z,0.00
2018-12-20T00:14:46.496Z,0.00
2018-12-20T00:15:46.565Z,0.00
2018-12-20T00:16:46.377Z,0.00
2018-12-20T00:17:46.485Z,0.00
2018-12-20T00:18:46.461Z,0.00
2018-12-20T00:19:46.329Z,0.00
2018-12-20T00:20:46.420Z,0.00
2018-12-20T00:21:46.294Z,0.00
2018-12-20T00:22:46.312Z,0.00
2018-12-20T00:23:46.324Z,0.00
2018-12-20T00:24:46.259Z,0.00
2018-12-20T00:25:46.255Z,0.00
2018-12-20T00:26:46.233Z,0.00
2018-12-20T00:27:46.273Z,0.00
2018-12-20T00:28:46.214Z,0.00
2018-12-20T00:29:46.231Z,0.00
2018-12-20T00:30:46.189Z,0.00
2018-12-20T00:31:46.189Z,0.00
2018-12-20T00:32:46.185Z,0.00
2018-12-20T00:33:46.167Z,0.00
2018-12-20T00:34:46.180Z,0.00
2018-12-20T00:35:46.260Z,0.00
2018-12-20T00:36:46.195Z,0.00
2018-12-20T00:37:46.132Z,0.00
2018-12-20T00:38:46.134Z,0.00
2018-12-20T00:39:46.095Z,0.00
2018-12-20T00:40:46.125Z,0.00
2018-12-20T00:41:46.141Z,0.00
2018-12-20T00:42:46.090Z,0.00
2018-12-20T00:43:46.046Z,0.00
2018-12-20T00:44:46.052Z,0.00
2018-12-20T00:45:46.166Z,0.00
2018-12-20T00:46:46.164Z,0.00
2018-12-20T00:47:46.022Z,0.00
2018-12-20T00:48:46.124Z,0.00
2018-12-20T00:49:46.003Z,0.00
2018-12-20T00:50:45.966Z,0.00
2018-12-20T00:51:46.027Z,0.00
2018-12-20T00:52:46.173Z,0.00
2018-12-20T00:53:45.983Z,0.00
2018-12-20T00:54:46.023Z,0.00
2018-12-20T00:55:45.910Z,0.00
2018-12-20T00:56:45.900Z,0.00
2018-12-20T00:57:46.395Z,0.00
2018-12-20T00:58:45.898Z,0.00
2018-12-20T00:59:45.865Z,0.00
2018-12-20T01:00:45.856Z,0.00
2018-12-20T01:01:45.892Z,0.00
2018-12-20T01:02:45.977Z,0.00
2018-12-20T01:03:45.837Z,0.00
2018-12-20T01:04:45.813Z,0.00
2018-12-20T01:05:45.805Z,0.00
2018-12-20T01:06:45.790Z,0.00
2018-12-20T01:07:45.783Z,0.00
2018-12-20T01:08:45.783Z,0.00
2018-12-20T01:09:45.758Z,0.00
2018-12-20T01:10:45.876Z,0.00
2018-12-20T01:11:45.733Z,0.00
2018-12-20T01:12:45.919Z,0.00
2018-12-20T01:13:45.732Z,0.00
2018-12-20T01:14:45.903Z,0.00
2018-12-20T01:15:45.832Z,0.00
2018-12-20T01:16:45.731Z,0.00
2018-12-20T01:17:45.749Z,0.00
2018-12-20T01:18:45.671Z,0.00
2018-12-20T01:19:45.777Z,0.00
2018-12-20T01:20:45.635Z,0.00
2018-12-20T01:21:45.617Z,0.00
2018-12-20T01:22:45.650Z,0.00
2018-12-20T01:23:45.621Z,0.00
2018-12-20T01:24:45.604Z,0.00
2018-12-20T01:25:45.578Z,0.00
2018-12-20T01:26:45.639Z,0.00
2018-12-20T01:27:45.642Z,0.00
2018-12-20T01:28:45.555Z,0.00
2018-12-20T01:29:45.549Z,0.00
2018-12-20T01:30:45.730Z,0.00
2018-12-20T01:31:45.569Z,0.00
2018-12-20T01:32:45.583Z,0.00
2018-12-20T01:33:45.706Z,0.00
2018-12-20T01:34:45.474Z,0.00
2018-12-20T01:35:45.497Z,0.00
2018-12-20T01:36:45.557Z,0.00
2018-12-20T01:37:45.614Z,0.00
2018-12-20T01:38:45.632Z,0.00
2018-12-20T01:39:45.536Z,0.00
2018-12-20T01:40:45.409Z,0.00
2018-12-20T01:41:45.401Z,0.00
2018-12-20T01:42:45.526Z,0.00
2018-12-20T01:43:45.410Z,0.00
2018-12-20T01:44:53.314Z,0.00
2018-12-20T01:45:46.399Z,0.00
2018-12-20T01:46:45.347Z,0.00
2018-12-20T01:47:45.327Z,0.00
2018-12-20T01:48:45.333Z,0.00
2018-12-20T01:49:45.340Z,0.00
2018-12-20T01:50:45.306Z,0.00
2018-12-20T01:51:45.280Z,0.00
2018-12-20T01:52:45.394Z,0.00
2018-12-20T01:53:45.449Z,0.00
2018-12-20T01:54:45.257Z,0.00
2018-12-20T01:55:45.324Z,0.00
2018-12-20T01:56:45.265Z,0.00
2018-12-20T01:57:45.213Z,0.00
2018-12-20T01:58:45.329Z,0.00
2018-12-20T01:59:45.192Z,0.00
2018-12-20T02:00:45.200Z,0.00
2018-12-20T02:01:45.210Z,0.00
2018-12-20T02:02:45.211Z,0.00
2018-12-20T02:03:45.343Z,0.00
2018-12-20T02:04:45.153Z,0.00
2018-12-20T02:05:45.164Z,0.00
2018-12-20T02:06:45.209Z,0.00
2018-12-20T02:07:45.246Z,0.00
2018-12-20T02:08:45.214Z,0.00
2018-12-20T02:09:45.270Z,0.00
2018-12-20T02:10:45.072Z,0.00
2018-12-20T02:11:45.062Z,0.00
2018-12-20T02:12:45.053Z,0.00
2018-12-20T02:13:45.036Z,0.00
2018-12-20T02:14:45.044Z,0.00
2018-12-20T02:15:45.022Z,0.00
2018-12-20T02:16:45.148Z,0.00
2018-12-20T02:17:45.095Z,0.00
2018-12-20T02:18:44.983Z,0.00
2018-12-20T02:19:45.210Z,0.00
2018-12-20T02:20:45.070Z,0.00
2018-12-20T02:21:45.067Z,0.00
2018-12-20T02:22:44.997Z,0.00
2018-12-20T02:23:45.059Z,0.00
2018-12-20T02:24:45.047Z,0.00
2018-12-20T02:25:44.905Z,0.00
2018-12-20T02:26:44.890Z,0.00
2018-12-20T02:27:44.919Z,0.00
2018-12-20T02:28:44.869Z,0.00
2018-12-20T02:29:44.880Z,0.00
2018-12-20T02:30:44.887Z,0.00
2018-12-20T02:31:45.017Z,0.00
2018-12-20T02:32:44.861Z,0.00
2018-12-20T02:33:45.092Z,0.00
2018-12-20T02:34:44.823Z,0.00
2018-12-20T02:35:45.004Z,0.00
2018-12-20T02:36:44.814Z,0.00
2018-12-20T02:37:44.815Z,0.00
2018-12-20T02:38:44.755Z,0.00
2018-12-20T02:39:44.777Z,0.00
2018-12-20T02:40:44.808Z,0.00
2018-12-20T02:41:44.935Z,0.00
2018-12-20T02:42:45.105Z,0.00
2018-12-20T02:43:44.946Z,0.00
2018-12-20T02:44:44.880Z,0.00
2018-12-20T02:45:44.776Z,0.00
2018-12-20T02:46:44.753Z,0.00
2018-12-20T02:47:44.792Z,0.00
2018-12-20T02:48:44.656Z,0.00
2018-12-20T02:49:44.642Z,0.00
2018-12-20T02:50:44.674Z,0.00
2018-12-20T02:51:44.698Z,0.00
2018-12-20T02:52:44.696Z,0.00
2018-12-20T02:53:44.593Z,0.00
2018-12-20T02:54:44.581Z,0.00
2018-12-20T02:55:44.743Z,0.00
2018-12-20T02:56:44.661Z,0.00
2018-12-20T02:57:44.600Z,0.00
2018-12-20T02:58:44.676Z,0.00
2018-12-20T02:59:44.532Z,0.00
2018-12-20T03:00:44.630Z,0.00
2018-12-20T03:01:44.497Z,0.00
2018-12-20T03:02:44.492Z,0.00
2018-12-20T03:03:44.479Z,0.00
2018-12-20T03:04:44.511Z,0.00
2018-12-20T03:05:44.476Z,0.00
2018-12-20T03:06:44.464Z,0.00
2018-12-20T03:07:44.594Z,0.00
2018-12-20T03:08:44.423Z,0.00
2018-12-20T03:09:44.409Z,0.00
2018-12-20T03:10:44.471Z,0.00
2018-12-20T03:11:44.388Z,0.00
2018-12-20T03:12:44.375Z,0.00
2018-12-20T03:13:44.407Z,0.00
2018-12-20T03:14:44.355Z,0.00
2018-12-20T03:15:44.561Z,0.00
2018-12-20T03:16:44.484Z,0.00
2018-12-20T03:17:44.447Z,0.00
2018-12-20T03:18:44.311Z,0.00
2018-12-20T03:19:44.295Z,0.00
2018-12-20T03:20:44.332Z,0.00
2018-12-20T03:21:44.277Z,0.00
2018-12-20T03:22:44.411Z,0.00
2018-12-20T03:23:44.255Z,0.00
2018-12-20T03:24:44.243Z,0.00
2018-12-20T03:25:44.250Z,0.00
2018-12-20T03:26:44.316Z,0.00
2018-12-20T03:27:44.285Z,0.00
2018-12-20T03:28:44.453Z,0.00
2018-12-20T03:29:44.384Z,0.00
2018-12-20T03:30:44.193Z,0.00
2018-12-20T03:31:44.167Z,0.00
2018-12-20T03:32:44.333Z,0.00
2018-12-20T03:33:44.206Z,0.00
2018-12-20T03:34:44.271Z,0.00
2018-12-20T03:35:44.134Z,0.00
2018-12-20T03:36:44.299Z,0.00
2018-12-20T03:37:44.099Z,0.00
2018-12-20T03:38:44.313Z,0.00
2018-12-20T03:39:44.152Z,0.00
2018-12-20T03:40:44.204Z,0.00
2018-12-20T03:41:44.274Z,0.00
2018-12-20T03:42:44.184Z,0.00
2018-12-20T03:43:44.029Z,0.00
2018-12-20T03:44:44.153Z,0.00
2018-12-20T03:45:44.094Z,0.00
2018-12-20T03:46:44.345Z,0.00
2018-12-20T03:47:44.082Z,0.00
2018-12-20T03:48:44.001Z,0.00
2018-12-20T03:49:43.961Z,0.00
2018-12-20T03:50:44.132Z,0.00
2018-12-20T03:51:43.953Z,0.00
2018-12-20T03:52:44.078Z,0.00
2018-12-20T03:53:43.973Z,0.00
2018-12-20T03:54:43.979Z,0.00
2018-12-20T03:55:43.895Z,0.00
2018-12-20T03:56:43.895Z,0.00
2018-12-20T03:57:44.249Z,0.00
2018-12-20T03:58:43.990Z,0.00
2018-12-20T03:59:44.091Z,0.00
2018-12-20T04:00:44.113Z,0.00
2018-12-20T04:01:43.843Z,0.00
2018-12-20T04:02:44.057Z,0.00
2018-12-20T04:03:43.999Z,0.00
2018-12-20T04:04:43.886Z,0.00
2018-12-20T04:05:43.893Z,0.00
2018-12-20T04:06:43.982Z,0.00
2018-12-20T04:07:43.762Z,0.00
2018-12-20T04:08:43.750Z,0.00
2018-12-20T04:09:43.812Z,0.00
2018-12-20T04:10:44.031Z,0.00
2018-12-20T04:11:43.827Z,0.00
2018-12-20T04:12:43.853Z,0.00
2018-12-20T04:13:43.709Z,0.00
2018-12-20T04:14:43.730Z,0.00
2018-12-20T04:15:43.681Z,0.00
2018-12-20T04:16:43.713Z,0.00
2018-12-20T04:17:43.705Z,0.00
2018-12-20T04:18:43.920Z,0.00
2018-12-20T04:19:43.698Z,0.00
2018-12-20T04:20:43.619Z,0.00
2018-12-20T04:21:43.686Z,0.00
2018-12-20T04:22:43.602Z,0.00
2018-12-20T04:23:43.813Z,0.00
2018-12-20T04:24:43.575Z,0.00
2018-12-20T04:25:43.788Z,0.00
2018-12-20T04:26:43.566Z,0.00
2018-12-20T04:27:43.663Z,0.00
2018-12-20T04:28:43.605Z,0.00
2018-12-20T04:29:43.769Z,0.00
2018-12-20T04:30:43.501Z,0.00
2018-12-20T04:31:43.536Z,0.00
2018-12-20T04:32:43.596Z,0.00
2018-12-20T04:33:43.469Z,0.00
2018-12-20T04:34:43.478Z,0.00
2018-12-20T04:35:43.449Z,0.00
2018-12-20T04:36:43.467Z,0.00
2018-12-20T04:37:43.555Z,0.00
2018-12-20T04:38:43.422Z,0.00
2018-12-20T04:39:43.488Z,0.00
2018-12-20T04:40:43.629Z,0.00
2018-12-20T04:41:43.396Z,0.00
2018-12-20T04:42:43.428Z,0.00
2018-12-20T04:43:43.599Z,0.00
2018-12-20T04:44:43.468Z,0.00
2018-12-20T04:45:46.803Z,0.00
2018-12-20T04:46:43.457Z,0.00
2018-12-20T04:47:43.448Z,0.00
2018-12-20T04:48:43.307Z,0.00
2018-12-20T04:49:43.336Z,0.00
2018-12-20T04:50:43.373Z,0.00
2018-12-20T04:51:43.300Z,0.00
2018-12-20T04:52:43.263Z,0.00
2018-12-20T04:53:43.256Z,0.00
2018-12-20T04:54:43.237Z,0.00
2018-12-20T04:55:43.471Z,0.00
2018-12-20T04:56:43.449Z,0.00
2018-12-20T04:57:43.489Z,0.00
2018-12-20T04:58:43.199Z,0.00
2018-12-20T04:59:43.332Z,0.00
2018-12-20T05:00:43.173Z,0.00
2018-12-20T05:01:43.208Z,0.00
2018-12-20T05:02:43.533Z,0.00
2018-12-20T05:03:43.429Z,0.00
2018-12-20T05:04:43.440Z,0.00
2018-12-20T05:05:43.111Z,0.00
2018-12-20T05:06:43.128Z,0.00
2018-12-20T05:07:43.344Z,0.00
2018-12-20T05:08:43.077Z,0.00
2018-12-20T05:09:43.077Z,0.00
2018-12-20T05:10:43.067Z,0.00
2018-12-20T05:11:43.353Z,0.00
2018-12-20T05:12:43.225Z,0.00
2018-12-20T05:13:43.084Z,0.00
2018-12-20T05:14:43.299Z,0.00
2018-12-20T05:15:43.002Z,0.00
2018-12-20T05:16:42.997Z,0.00
2018-12-20T05:17:43.290Z,0.00
2018-12-20T05:18:43.115Z,0.00
2018-12-20T05:19:43.075Z,0.00
2018-12-20T05:20:43.002Z,0.00
2018-12-20T05:21:42.938Z,0.00
2018-12-20T05:22:43.099Z,0.00
2018-12-20T05:23:42.968Z,0.00
2018-12-20T05:24:42.965Z,0.00
2018-12-20T05:25:42.897Z,0.00
2018-12-20T05:26:42.888Z,0.00
2018-12-20T05:27:42.915Z,0.00
2018-12-20T05:28:42.885Z,0.00
2018-12-20T05:29:42.848Z,0.00
2018-12-20T05:30:43.138Z,0.00
2018-12-20T05:31:43.089Z,0.00
2018-12-20T05:32:42.952Z,0.00
2018-12-20T05:33:42.975Z,0.00
2018-12-20T05:34:42.829Z,0.00
2018-12-20T05:35:42.962Z,0.00
2018-12-20T05:36:42.768Z,0.00
2018-12-20T05:37:42.973Z,0.00
2018-12-20T05:38:42.923Z,0.00
2018-12-20T05:39:42.738Z,0.00
2018-12-20T05:40:42.719Z,0.00
2018-12-20T05:41:42.771Z,0.00
2018-12-20T05:42:42.963Z,0.00
2018-12-20T05:43:42.862Z,0.00
2018-12-20T05:44:42.693Z,0.00
2018-12-20T05:45:42.904Z,0.00
2018-12-20T05:46:42.652Z,0.00
2018-12-20T05:47:42.850Z,0.00
2018-12-20T05:48:42.710Z,0.00
2018-12-20T05:49:42.763Z,0.00
2018-12-20T05:50:42.668Z,0.00
2018-12-20T05:51:42.748Z,0.00
2018-12-20T05:52:42.607Z,0.00
2018-12-20T05:53:42.603Z,0.00
2018-12-20T05:54:42.565Z,0.00
2018-12-20T05:55:42.786Z,0.00
2018-12-20T05:56:42.663Z,0.00
2018-12-20T05:57:42.827Z,0.00
2018-12-20T05:58:44.519Z,0.00
2018-12-20T05:59:42.524Z,0.00
2018-12-20T06:00:42.515Z,0.00
2018-12-20T06:01:42.595Z,0.00
2018-12-20T06:02:42.483Z,0.00
2018-12-20T06:03:42.481Z,0.00
2018-12-20T06:04:42.766Z,0.00
2018-12-20T06:05:42.465Z,0.00
2018-12-20T06:06:42.571Z,0.00
2018-12-20T06:07:42.420Z,0.00
2018-12-20T06:08:42.426Z,0.00
2018-12-20T06:09:42.443Z,0.00
2018-12-20T06:10:42.481Z,0.00
2018-12-20T06:11:42.639Z,0.00
2018-12-20T06:12:42.392Z,0.00
2018-12-20T06:13:42.429Z,0.00
2018-12-20T06:14:42.528Z,0.00
2018-12-20T06:15:42.386Z,0.00
2018-12-20T06:16:42.321Z,0.00
2018-12-20T06:17:42.306Z,0.00
2018-12-20T06:18:42.324Z,0.00
2018-12-20T06:19:42.306Z,0.00
2018-12-20T06:20:42.752Z,0.00
2018-12-20T06:21:42.271Z,0.00
2018-12-20T06:22:42.252Z,0.00
2018-12-20T06:23:42.255Z,0.00
2018-12-20T06:24:42.234Z,0.00
2018-12-20T06:25:42.224Z,0.00
2018-12-20T06:26:42.208Z,0.00
2018-12-20T06:27:42.201Z,0.00
2018-12-20T06:28:42.207Z,0.00
2018-12-20T06:29:42.177Z,0.00
2018-12-20T06:30:42.167Z,0.00
2018-12-20T06:31:42.154Z,0.00
2018-12-20T06:32:42.141Z,0.00
2018-12-20T06:33:42.147Z,0.00
2018-12-20T06:34:42.117Z,0.00
2018-12-20T06:35:42.127Z,0.00
2018-12-20T06:36:42.099Z,0.00
2018-12-20T06:37:42.085Z,0.00
2018-12-20T06:38:42.257Z,0.00
2018-12-20T06:39:42.060Z,0.00
2018-12-20T06:40:42.060Z,0.00
2018-12-20T06:41:42.063Z,0.00
2018-12-20T06:42:42.031Z,0.00
2018-12-20T06:43:42.047Z,0.00
2018-12-20T06:44:42.015Z,4.00
2018-12-20T06:45:41.991Z,4.00
2018-12-20T06:46:41.981Z,4.00
2018-12-20T06:47:41.975Z,0.00
2018-12-20T06:48:41.959Z,4.00
2018-12-20T06:49:41.967Z,4.00
2018-12-20T06:50:41.934Z,8.00
2018-12-20T06:51:41.926Z,4.00
2018-12-20T06:52:41.917Z,8.00
2018-12-20T06:53:41.911Z,8.00
2018-12-20T06:54:41.910Z,12.00
2018-12-20T06:55:41.883Z,12.00
2018-12-20T06:56:41.875Z,12.00
2018-12-20T06:57:41.859Z,16.00
2018-12-20T06:58:41.849Z,20.00
2018-12-20T06:59:41.870Z,20.00
2018-12-20T07:00:41.830Z,24.00
2018-12-20T07:01:41.816Z,24.00
2018-12-20T07:02:41.808Z,28.00
2018-12-20T07:03:41.796Z,32.00
2018-12-20T07:04:41.813Z,36.00
2018-12-20T07:05:41.797Z,40.00
2018-12-20T07:06:41.763Z,40.00
2018-12-20T07:07:41.751Z,44.00
2018-12-20T07:08:41.735Z,48.00
2018-12-20T07:09:42.200Z,48.00
2018-12-20T07:10:41.711Z,52.00
2018-12-20T07:11:41.705Z,56.00
2018-12-20T07:12:41.689Z,60.00
2018-12-20T07:13:41.701Z,68.00
2018-12-20T07:14:41.685Z,72.00
2018-12-20T07:15:41.655Z,80.00
2018-12-20T07:16:41.647Z,84.00
2018-12-20T07:17:41.641Z,92.00
2018-12-20T07:18:41.623Z,104.00
2018-12-20T07:19:41.642Z,112.00
2018-12-20T07:20:41.606Z,120.00
2018-12-20T07:21:41.598Z,132.00
2018-12-20T07:22:41.581Z,144.00
2018-12-20T07:23:41.569Z,156.00
2018-12-20T07:24:41.576Z,168.00
2018-12-20T07:25:41.543Z,184.00
2018-12-20T07:26:41.544Z,196.00
2018-12-20T07:27:41.527Z,212.00
2018-12-20T07:28:41.507Z,224.00
2018-12-20T07:29:41.532Z,240.00
2018-12-20T07:30:41.496Z,252.00
2018-12-20T07:31:41.477Z,268.00
2018-12-20T07:32:41.468Z,288.00
2018-12-20T07:33:41.452Z,308.00
2018-12-20T07:34:47.858Z,328.00
2018-12-20T07:35:42.445Z,344.00
2018-12-20T07:36:41.421Z,368.00
2018-12-20T07:37:41.409Z,392.00
2018-12-20T07:38:41.399Z,420.00
2018-12-20T07:39:41.390Z,452.00
2018-12-20T07:40:41.392Z,480.00
2018-12-20T07:41:41.367Z,512.00
2018-12-20T07:42:41.394Z,552.00
2018-12-20T07:43:41.343Z,592.00
2018-12-20T07:44:41.334Z,632.00
2018-12-20T07:45:41.345Z,672.00
2018-12-20T07:46:41.338Z,708.00
2018-12-20T07:47:41.303Z,748.00
2018-12-20T07:48:41.294Z,792.00
2018-12-20T07:49:41.279Z,836.00
2018-12-20T07:50:41.300Z,880.00
2018-12-20T07:51:41.255Z,932.00
2018-12-20T07:52:41.239Z,980.00
2018-12-20T07:53:41.233Z,1028.00
2018-12-20T07:54:41.220Z,1072.00
2018-12-20T07:55:41.239Z,1112.00
2018-12-20T07:56:41.207Z,1148.00
2018-12-20T07:57:41.185Z,1184.00
2018-12-20T07:58:41.176Z,1216.00
2018-12-20T07:59:41.166Z,1248.00
2018-12-20T08:00:41.175Z,1276.00
2018-12-20T08:01:41.145Z,1308.00
2018-12-20T08:02:41.133Z,1340.00
2018-12-20T08:03:41.119Z,1380.00
2018-12-20T08:04:41.107Z,1420.00
2018-12-20T08:05:41.117Z,1464.00
2018-12-20T08:06:41.085Z,1516.00
2018-12-20T08:07:41.078Z,1564.00
2018-12-20T08:08:41.061Z,1612.00
2018-12-20T08:09:41.058Z,1672.00
2018-12-20T08:10:41.081Z,1736.00
2018-12-20T08:11:41.037Z,1792.00
2018-12-20T08:12:41.017Z,1848.00
2018-12-20T08:13:41.008Z,1908.00
2018-12-20T08:14:41.003Z,1968.00
2018-12-20T08:15:40.988Z,2032.00
2018-12-20T08:16:46.005Z,2072.00
2018-12-20T08:17:41.967Z,2120.00
2018-12-20T08:18:40.951Z,2164.00
2018-12-20T08:19:40.963Z,2216.00
2018-12-20T08:20:40.929Z,2256.00
2018-12-20T08:21:40.936Z,2304.00
2018-12-20T08:22:40.911Z,2352.00
2018-12-20T08:23:40.899Z,2388.00
2018-12-20T08:24:40.929Z,2436.00
2018-12-20T08:25:40.874Z,2476.00
2018-12-20T08:26:40.880Z,2524.00
2018-12-20T08:27:40.848Z,2576.00
2018-12-20T08:28:40.846Z,2636.00
2018-12-20T08:29:40.827Z,2688.00
2018-12-20T08:30:40.817Z,2740.00
2018-12-20T08:31:40.828Z,2792.00
2018-12-20T08:32:40.809Z,2844.00
2018-12-20T08:33:40.784Z,2884.00
2018-12-20T08:34:40.824Z,2884.00
2018-12-20T08:35:40.763Z,2884.00
2018-12-20T08:36:40.778Z,2900.00
2018-12-20T08:37:40.738Z,2912.00
2018-12-20T08:38:40.726Z,2936.00
2018-12-20T08:39:40.721Z,2952.00
2018-12-20T08:40:40.706Z,2968.00
2018-12-20T08:41:40.711Z,2956.00
2018-12-20T08:42:40.689Z,2956.00
2018-12-20T08:43:40.672Z,2960.00
2018-12-20T08:44:40.662Z,2944.00
2018-12-20T08:45:40.646Z,2932.00
2018-12-20T08:46:40.662Z,2908.00
2018-12-20T08:47:40.624Z,2872.00
2018-12-20T08:48:40.614Z,2836.00
2018-12-20T08:49:40.607Z,2812.00
2018-12-20T08:50:40.598Z,2804.00
2018-12-20T08:51:48.847Z,2808.00
2018-12-20T08:52:41.596Z,2804.00
2018-12-20T08:53:40.577Z,2820.00
2018-12-20T08:54:40.556Z,2856.00
2018-12-20T08:55:40.543Z,2884.00
2018-12-20T08:56:40.526Z,2936.00
2018-12-20T08:57:40.548Z,2980.00
2018-12-20T08:58:40.502Z,3056.00
2018-12-20T08:59:40.496Z,3068.00
2018-12-20T09:00:40.481Z,3112.00
2018-12-20T09:01:40.466Z,3116.00
2018-12-20T09:02:40.476Z,3144.00
2018-12-20T09:03:40.450Z,3204.00
2018-12-20T09:04:40.441Z,3216.00
2018-12-20T09:05:40.428Z,3212.00
2018-12-20T09:06:40.429Z,3228.00
2018-12-20T09:07:40.414Z,3232.00
2018-12-20T09:08:40.388Z,3244.00
2018-12-20T09:09:40.507Z,3228.00
2018-12-20T09:10:40.411Z,3248.00
2018-12-20T09:11:40.356Z,3256.00
2018-12-20T09:12:40.375Z,3284.00
2018-12-20T09:13:40.334Z,3336.00
2018-12-20T09:14:40.320Z,3376.00
2018-12-20T09:15:40.314Z,3444.00
2018-12-20T09:16:40.300Z,3536.00
2018-12-20T09:17:40.309Z,3624.00
2018-12-20T09:18:40.318Z,3724.00
2018-12-20T09:19:40.275Z,3824.00
2018-12-20T09:20:40.258Z,3928.00
2018-12-20T09:21:40.254Z,4020.00
2018-12-20T09:22:40.252Z,4100.00
2018-12-20T09:23:41.210Z,4156.00
2018-12-20T09:24:40.216Z,4212.00
2018-12-20T09:25:40.203Z,4216.00
2018-12-20T09:26:40.183Z,4212.00
2018-12-20T09:27:40.199Z,4204.00
2018-12-20T09:28:40.167Z,4216.00
2018-12-20T09:29:40.162Z,4236.00
2018-12-20T09:30:40.153Z,4260.00
2018-12-20T09:31:40.128Z,4268.00
2018-12-20T09:32:40.142Z,4280.00
2018-12-20T09:33:40.110Z,4280.00
2018-12-20T09:34:40.096Z,4252.00
2018-12-20T09:35:40.088Z,4276.00
2018-12-20T09:36:40.073Z,4288.00
2018-12-20T09:37:40.149Z,4264.00
2018-12-20T09:38:40.064Z,4264.00
2018-12-20T09:39:40.044Z,4248.00
2018-12-20T09:40:40.032Z,4188.00
2018-12-20T09:41:40.020Z,4156.00
2018-12-20T09:42:40.014Z,4136.00
2018-12-20T09:43:40.022Z,4116.00
2018-12-20T09:44:39.988Z,4100.00
2018-12-20T09:45:40.034Z,4148.00
2018-12-20T09:46:39.965Z,4188.00
2018-12-20T09:47:39.967Z,4228.00
2018-12-20T09:48:39.953Z,4264.00
2018-12-20T09:49:40.026Z,4280.00
2018-12-20T09:50:39.919Z,4340.00
2018-12-20T09:51:39.911Z,4412.00
2018-12-20T09:52:39.899Z,4436.00
2018-12-20T09:53:39.905Z,4472.00
2018-12-20T09:54:39.876Z,4524.00
2018-12-20T09:55:39.863Z,4492.00
2018-12-20T09:56:39.852Z,4548.00
2018-12-20T09:57:39.875Z,4536.00
2018-12-20T09:58:39.848Z,4500.00
2018-12-20T09:59:39.817Z,4508.00
2018-12-20T10:00:39.807Z,4608.00
2018-12-20T10:01:39.802Z,4560.00
2018-12-20T10:02:39.790Z,4536.00
2018-12-20T10:03:39.771Z,4564.00
2018-12-20T10:04:39.780Z,4572.00
2018-12-20T10:05:39.753Z,4560.00
2018-12-20T10:06:39.734Z,4716.00
2018-12-20T10:07:39.731Z,4764.00
2018-12-20T10:08:39.736Z,4880.00
2018-12-20T10:09:39.702Z,4940.00
2018-12-20T10:10:39.695Z,4928.00
2018-12-20T10:11:39.683Z,4944.00
2018-12-20T10:12:39.682Z,5016.00
2018-12-20T10:13:39.684Z,5116.00
2018-12-20T10:14:39.651Z,5036.00
2018-12-20T10:15:39.640Z,5124.00
2018-12-20T10:16:39.627Z,5180.00
2018-12-20T10:17:39.614Z,5232.00
2018-12-20T10:18:39.624Z,5352.00
2018-12-20T10:19:39.602Z,5436.00
2018-12-20T10:20:39.598Z,5532.00
2018-12-20T10:21:39.584Z,5644.00
2018-12-20T10:22:39.590Z,5856.00
2018-12-20T10:23:39.584Z,5972.00
2018-12-20T10:24:39.560Z,6008.00
2018-12-20T10:25:39.633Z,6104.00
2018-12-20T10:26:39.658Z,5948.00
2018-12-20T10:27:39.505Z,5940.00
2018-12-20T10:28:39.492Z,5904.00
2018-12-20T10:29:39.495Z,5804.00
2018-12-20T10:30:39.472Z,5832.00
2018-12-20T10:31:39.459Z,5940.00
2018-12-20T10:32:39.448Z,5908.00
2018-12-20T10:33:39.431Z,5912.00
2018-12-20T10:34:39.459Z,5936.00
2018-12-20T10:35:39.412Z,6056.00
2018-12-20T10:36:39.405Z,6184.00
2018-12-20T10:37:39.389Z,6208.00
2018-12-20T10:38:41.659Z,6248.00
2018-12-20T10:39:39.410Z,6200.00
2018-12-20T10:40:39.355Z,6116.00
2018-12-20T10:41:39.346Z,6072.00
2018-12-20T10:42:39.329Z,6080.00
2018-12-20T10:43:39.317Z,6048.00
2018-12-20T10:44:39.330Z,5988.00
2018-12-20T10:45:39.303Z,5872.00
2018-12-20T10:46:39.281Z,5808.00
2018-12-20T10:47:39.270Z,5732.00
2018-12-20T10:48:39.260Z,5648.00
2018-12-20T10:49:39.272Z,5536.00
2018-12-20T10:50:39.238Z,5432.00
2018-12-20T10:51:39.230Z,5408.00
2018-12-20T10:52:39.220Z,5512.00
2018-12-20T10:53:39.209Z,5644.00
2018-12-20T10:54:39.501Z,5676.00
2018-12-20T10:55:39.192Z,5632.00
2018-12-20T10:56:39.170Z,5600.00
2018-12-20T10:57:39.160Z,5664.00
2018-12-20T10:58:39.154Z,5784.00
2018-12-20T10:59:39.170Z,6004.00
2018-12-20T11:00:39.133Z,6116.00
2018-12-20T11:01:39.115Z,6376.00
2018-12-20T11:02:39.109Z,6532.00
2018-12-20T11:03:39.098Z,6600.00
2018-12-20T11:04:39.104Z,6536.00
2018-12-20T11:05:39.081Z,6520.00
2018-12-20T11:06:39.061Z,6564.00
2018-12-20T11:07:39.048Z,6544.00
2018-12-20T11:08:39.035Z,6520.00
2018-12-20T11:09:39.058Z,6532.00
2018-12-20T11:10:39.030Z,6436.00
2018-12-20T11:11:39.002Z,6248.00
2018-12-20T11:12:38.986Z,6192.00
2018-12-20T11:13:38.981Z,6188.00
2018-12-20T11:14:38.970Z,6216.00
2018-12-20T11:15:38.978Z,6228.00
2018-12-20T11:16:38.956Z,6224.00
2018-12-20T11:17:38.941Z,6204.00
2018-12-20T11:18:38.926Z,6140.00
2018-12-20T11:19:38.915Z,6056.00
2018-12-20T11:20:38.918Z,6032.00
2018-12-20T11:21:38.888Z,6020.00
2018-12-20T11:22:38.875Z,6040.00
2018-12-20T11:23:38.870Z,6032.00
2018-12-20T11:24:38.857Z,6000.00
2018-12-20T11:25:38.872Z,6016.00
2018-12-20T11:26:38.836Z,6024.00
2018-12-20T11:27:38.819Z,5928.00
2018-12-20T11:28:38.862Z,5800.00
2018-12-20T11:29:38.901Z,5784.00
2018-12-20T11:30:38.800Z,5888.00
2018-12-20T11:31:38.782Z,5852.00
2018-12-20T11:32:38.768Z,5816.00
2018-12-20T11:33:38.756Z,5768.00
2018-12-20T11:34:38.742Z,5708.00
2018-12-20T11:35:38.744Z,5644.00
2018-12-20T11:36:38.724Z,5564.00
2018-12-20T11:37:38.714Z,5492.00
2018-12-20T11:38:38.705Z,5420.00
2018-12-20T11:39:38.690Z,5332.00
2018-12-20T11:40:38.745Z,5260.00
2018-12-20T11:41:38.663Z,5172.00
2018-12-20T11:42:38.654Z,5080.00
2018-12-20T11:43:38.637Z,4992.00
2018-12-20T11:44:38.628Z,4916.00
2018-12-20T11:45:38.962Z,4824.00
2018-12-20T11:46:38.652Z,4744.00
2018-12-20T11:47:45.892Z,4660.00
2018-12-20T11:48:39.586Z,4580.00
2018-12-20T11:49:38.579Z,4520.00
2018-12-20T11:50:38.580Z,4504.00
2018-12-20T11:51:38.573Z,4536.00
2018-12-20T11:52:42.274Z,4608.00
2018-12-20T11:53:38.576Z,4680.00
2018-12-20T11:54:38.519Z,4748.00
2018-12-20T11:55:38.602Z,4816.00
2018-12-20T11:56:38.620Z,4880.00
2018-12-20T11:57:38.484Z,4932.00
2018-12-20T11:58:38.473Z,4992.00
2018-12-20T11:59:38.469Z,5060.00
2018-12-20T12:00:38.457Z,5124.00
2018-12-20T12:01:38.539Z,5180.00
2018-12-20T12:02:38.430Z,5252.00
2018-12-20T12:03:38.668Z,5304.00
2018-12-20T12:04:38.433Z,5320.00
2018-12-20T12:05:39.235Z,5328.00
2018-12-20T12:06:38.451Z,5336.00
2018-12-20T12:07:38.369Z,5316.00
2018-12-20T12:08:38.360Z,5292.00
2018-12-20T12:09:38.347Z,5252.00
2018-12-20T12:10:38.345Z,5200.00
2018-12-20T12:11:38.343Z,5148.00
2018-12-20T12:12:38.317Z,5088.00
2018-12-20T12:13:38.305Z,5012.00
2018-12-20T12:14:38.301Z,4928.00
2018-12-20T12:15:38.281Z,4856.00
2018-12-20T12:16:38.294Z,4836.00
2018-12-20T12:17:38.264Z,4828.00
2018-12-20T12:18:38.266Z,4880.00
2018-12-20T12:19:38.240Z,4940.00
2018-12-20T12:20:38.225Z,5056.00
2018-12-20T12:21:38.236Z,5192.00
2018-12-20T12:22:38.204Z,5276.00
2018-12-20T12:23:38.186Z,5352.00
2018-12-20T12:24:38.178Z,5432.00
2018-12-20T12:25:38.167Z,5504.00
2018-12-20T12:26:38.275Z,5556.00
2018-12-20T12:27:38.151Z,5488.00
2018-12-20T12:28:38.136Z,5436.00
2018-12-20T12:29:38.118Z,5512.00
2018-12-20T12:30:38.113Z,5664.00
2018-12-20T12:31:38.117Z,5756.00
2018-12-20T12:32:38.088Z,5752.00
2018-12-20T12:33:38.082Z,5672.00
2018-12-20T12:34:38.062Z,5592.00
2018-12-20T12:35:38.075Z,5416.00
2018-12-20T12:36:38.068Z,5268.00
2018-12-20T12:37:38.032Z,5220.00
2018-12-20T12:38:38.023Z,5128.00
2018-12-20T12:39:38.017Z,4964.00
2018-12-20T12:40:38.001Z,4896.00
2018-12-20T12:41:38.021Z,4768.00
2018-12-20T12:42:37.972Z,4408.00
2018-12-20T12:43:37.966Z,4312.00
2018-12-20T12:44:37.950Z,4144.00
2018-12-20T12:45:37.939Z,4084.00